sensor_id;sensor_type;location;lat;lon;timestamp;temperature;humidity
73570;SHT30;61850;54.980;73.298;2022-08-11T00:00:36;20.06;81.27
73570;SHT30;61850;54.980;73.298;2022-08-11T00:03:05;20.09;81.33
73570;SHT30;61850;54.980;73.298;2022-08-11T00:05:46;20.05;81.71
73570;SHT30;61850;54.980;73.298;2022-08-11T00:08:25;19.99;81.98
73570;SHT30;61850;54.980;73.298;2022-08-11T00:10:55;19.96;82.10
73570;SHT30;61850;54.980;73.298;2022-08-11T00:13:33;19.98;82.18
73570;SHT30;61850;54.980;73.298;2022-08-11T00:16:01;20.01;82.14
73570;SHT30;61850;54.980;73.298;2022-08-11T00:18:41;19.99;82.31
73570;SHT30;61850;54.980;73.298;2022-08-11T00:21:14;20.01;81.94
73570;SHT30;61850;54.980;73.298;2022-08-11T00:23:56;20.01;82.32
73570;SHT30;61850;54.980;73.298;2022-08-11T00:26:24;20.04;82.03
73570;SHT30;61850;54.980;73.298;2022-08-11T00:28:55;20.04;82.16
73570;SHT30;61850;54.980;73.298;2022-08-11T00:31:28;20.01;82.49
73570;SHT30;61850;54.980;73.298;2022-08-11T00:33:54;20.01;82.65
73570;SHT30;61850;54.980;73.298;2022-08-11T00:36:26;20.02;82.52
73570;SHT30;61850;54.980;73.298;2022-08-11T00:39:06;19.95;82.75
73570;SHT30;61850;54.980;73.298;2022-08-11T00:50:17;19.89;83.56
73570;SHT30;61850;54.980;73.298;2022-08-11T01:18:20;20.14;82.88
73570;SHT30;61850;54.980;73.298;2022-08-11T01:24:17;20.30;82.17
73570;SHT30;61850;54.980;73.298;2022-08-11T01:27:20;20.40;81.91
73570;SHT30;61850;54.980;73.298;2022-08-11T01:36:16;20.60;81.00
73570;SHT30;61850;54.980;73.298;2022-08-11T01:41:59;20.74;80.50
73570;SHT30;61850;54.980;73.298;2022-08-11T01:50:20;20.81;80.13
73570;SHT30;61850;54.980;73.298;2022-08-11T01:53:07;20.83;80.07
73570;SHT30;61850;54.980;73.298;2022-08-11T01:56:04;20.80;79.95
73570;SHT30;61850;54.980;73.298;2022-08-11T02:01:10;20.81;79.81
73570;SHT30;61850;54.980;73.298;2022-08-11T02:03:58;20.77;79.79
73570;SHT30;61850;54.980;73.298;2022-08-11T02:06:46;20.67;79.98
73570;SHT30;61850;54.980;73.298;2022-08-11T02:09:42;20.66;80.04
73570;SHT30;61850;54.980;73.298;2022-08-11T02:13:17;20.70;80.01
73570;SHT30;61850;54.980;73.298;2022-08-11T02:15:34;20.66;80.27
73570;SHT30;61850;54.980;73.298;2022-08-11T02:21:01;20.69;80.19
73570;SHT30;61850;54.980;73.298;2022-08-11T02:24:00;20.74;80.11
73570;SHT30;61850;54.980;73.298;2022-08-11T02:26:40;20.79;80.17
73570;SHT30;61850;54.980;73.298;2022-08-11T02:32:30;20.81;79.67
73570;SHT30;61850;54.980;73.298;2022-08-11T02:35:28;20.88;79.33
73570;SHT30;61850;54.980;73.298;2022-08-11T02:38:23;21.01;78.90
73570;SHT30;61850;54.980;73.298;2022-08-11T02:41:23;21.12;78.37
73570;SHT30;61850;54.980;73.298;2022-08-11T02:47:10;21.25;78.07
73570;SHT30;61850;54.980;73.298;2022-08-11T02:55:20;21.27;78.24
73570;SHT30;61850;54.980;73.298;2022-08-11T02:58:09;21.39;77.78
73570;SHT30;61850;54.980;73.298;2022-08-11T03:00:49;21.49;77.51
73570;SHT30;61850;54.980;73.298;2022-08-11T03:03:43;21.55;77.22
73570;SHT30;61850;54.980;73.298;2022-08-11T03:09:43;21.60;76.69
73570;SHT30;61850;54.980;73.298;2022-08-11T03:12:03;21.66;76.46
73570;SHT30;61850;54.980;73.298;2022-08-11T03:14:55;21.70;76.30
73570;SHT30;61850;54.980;73.298;2022-08-11T03:20:56;21.87;75.62
73570;SHT30;61850;54.980;73.298;2022-08-11T03:23:32;21.85;75.61
73570;SHT30;61850;54.980;73.298;2022-08-11T03:32:09;22.11;74.70
73570;SHT30;61850;54.980;73.298;2022-08-11T03:34:38;22.21;74.54
73570;SHT30;61850;54.980;73.298;2022-08-11T03:37:47;22.30;74.22
73570;SHT30;61850;54.980;73.298;2022-08-11T03:51:54;22.56;73.33
73570;SHT30;61850;54.980;73.298;2022-08-11T04:00:56;22.91;72.06
73570;SHT30;61850;54.980;73.298;2022-08-11T04:21:35;23.47;70.30
73570;SHT30;61850;54.980;73.298;2022-08-11T04:30:06;23.14;71.07
73570;SHT30;61850;54.980;73.298;2022-08-11T04:36:29;23.02;71.27
73570;SHT30;61850;54.980;73.298;2022-08-11T04:40:05;23.16;70.79
73570;SHT30;61850;54.980;73.298;2022-08-11T04:55:52;23.47;69.60
73570;SHT30;61850;54.980;73.298;2022-08-11T05:13:50;23.92;68.65
73570;SHT30;61850;54.980;73.298;2022-08-11T05:17:13;24.22;67.80
73570;SHT30;61850;54.980;73.298;2022-08-11T05:20:02;24.29;67.83
73570;SHT30;61850;54.980;73.298;2022-08-11T05:23:14;24.40;67.49
73570;SHT30;61850;54.980;73.298;2022-08-11T05:26:01;24.59;66.98
73570;SHT30;61850;54.980;73.298;2022-08-11T05:29:00;24.55;66.70
73570;SHT30;61850;54.980;73.298;2022-08-11T05:31:55;24.50;66.73
73570;SHT30;61850;54.980;73.298;2022-08-11T05:34:45;24.52;66.88
73570;SHT30;61850;54.980;73.298;2022-08-11T05:39:52;24.43;66.59
73570;SHT30;61850;54.980;73.298;2022-08-11T05:42:42;24.49;66.34
73570;SHT30;61850;54.980;73.298;2022-08-11T05:45:34;24.39;67.04
73570;SHT30;61850;54.980;73.298;2022-08-11T05:48:20;24.36;67.05
73570;SHT30;61850;54.980;73.298;2022-08-11T05:51:09;24.33;67.09
73570;SHT30;61850;54.980;73.298;2022-08-11T05:53:57;24.40;67.04
73570;SHT30;61850;54.980;73.298;2022-08-11T05:56:48;24.37;66.57
73570;SHT30;61850;54.980;73.298;2022-08-11T05:59:16;24.55;66.24
73570;SHT30;61850;54.980;73.298;2022-08-11T06:01:44;24.70;66.11
73570;SHT30;61850;54.980;73.298;2022-08-11T06:04:20;24.83;65.68
73570;SHT30;61850;54.980;73.298;2022-08-11T06:07:06;25.17;64.72
73570;SHT30;61850;54.980;73.298;2022-08-11T06:09:39;25.24;64.77
73570;SHT30;61850;54.980;73.298;2022-08-11T06:12:17;24.94;65.61
73570;SHT30;61850;54.980;73.298;2022-08-11T06:14:50;25.07;65.39
73570;SHT30;61850;54.980;73.298;2022-08-11T06:17:23;24.97;65.37
73570;SHT30;61850;54.980;73.298;2022-08-11T06:19:50;24.90;65.52
73570;SHT30;61850;54.980;73.298;2022-08-11T06:22:22;24.99;64.99
73570;SHT30;61850;54.980;73.298;2022-08-11T06:24:57;25.08;64.55
73570;SHT30;61850;54.980;73.298;2022-08-11T06:27:26;25.18;64.12
73570;SHT30;61850;54.980;73.298;2022-08-11T06:29:54;25.38;63.61
73570;SHT30;61850;54.980;73.298;2022-08-11T06:32:31;25.50;63.45
73570;SHT30;61850;54.980;73.298;2022-08-11T06:35:06;25.66;63.06
73570;SHT30;61850;54.980;73.298;2022-08-11T06:40:37;26.03;62.03
73570;SHT30;61850;54.980;73.298;2022-08-11T06:45:50;26.31;61.55
73570;SHT30;61850;54.980;73.298;2022-08-11T06:48:20;26.32;61.21
73570;SHT30;61850;54.980;73.298;2022-08-11T06:51:17;26.27;61.36
73570;SHT30;61850;54.980;73.298;2022-08-11T06:53:45;26.30;60.93
73570;SHT30;61850;54.980;73.298;2022-08-11T06:56:13;26.20;61.35
73570;SHT30;61850;54.980;73.298;2022-08-11T06:59:00;26.10;61.64
73570;SHT30;61850;54.980;73.298;2022-08-11T07:02:08;26.04;61.67
73570;SHT30;61850;54.980;73.298;2022-08-11T07:04:55;25.94;61.74
73570;SHT30;61850;54.980;73.298;2022-08-11T07:16:50;26.37;60.55
73570;SHT30;61850;54.980;73.298;2022-08-11T07:22:27;26.32;60.67
73570;SHT30;61850;54.980;73.298;2022-08-11T07:25:15;26.42;60.55
73570;SHT30;61850;54.980;73.298;2022-08-11T07:28:27;26.52;60.08
73570;SHT30;61850;54.980;73.298;2022-08-11T07:31:19;26.55;59.53
73570;SHT30;61850;54.980;73.298;2022-08-11T07:33:49;26.23;60.19
73570;SHT30;61850;54.980;73.298;2022-08-11T07:36:19;26.27;60.42
73570;SHT30;61850;54.980;73.298;2022-08-11T07:38:58;26.38;60.10
73570;SHT30;61850;54.980;73.298;2022-08-11T07:41:26;26.51;59.83
73570;SHT30;61850;54.980;73.298;2022-08-11T07:43:58;26.53;60.05
73570;SHT30;61850;54.980;73.298;2022-08-11T07:46:42;26.37;60.18
73570;SHT30;61850;54.980;73.298;2022-08-11T07:49:32;26.58;60.05
73570;SHT30;61850;54.980;73.298;2022-08-11T07:52:18;26.53;60.41
73570;SHT30;61850;54.980;73.298;2022-08-11T07:55:20;26.80;59.70
73570;SHT30;61850;54.980;73.298;2022-08-11T07:57:58;26.80;59.89
73570;SHT30;61850;54.980;73.298;2022-08-11T08:00:55;26.89;59.42
73570;SHT30;61850;54.980;73.298;2022-08-11T08:03:42;26.82;59.57
73570;SHT30;61850;54.980;73.298;2022-08-11T08:06:31;26.75;59.47
73570;SHT30;61850;54.980;73.298;2022-08-11T08:09:27;26.69;59.28
73570;SHT30;61850;54.980;73.298;2022-08-11T08:12:14;26.55;59.82
73570;SHT30;61850;54.980;73.298;2022-08-11T08:15:00;26.71;59.83
73570;SHT30;61850;54.980;73.298;2022-08-11T08:17:52;26.76;59.80
73570;SHT30;61850;54.980;73.298;2022-08-11T08:20:33;26.82;59.48
73570;SHT30;61850;54.980;73.298;2022-08-11T08:23:04;26.69;59.49
73570;SHT30;61850;54.980;73.298;2022-08-11T08:25:34;26.79;58.85
73570;SHT30;61850;54.980;73.298;2022-08-11T08:28:05;27.10;58.14
73570;SHT30;61850;54.980;73.298;2022-08-11T08:30:34;27.68;56.98
73570;SHT30;61850;54.980;73.298;2022-08-11T08:33:22;28.43;54.97
73570;SHT30;61850;54.980;73.298;2022-08-11T08:35:53;28.47;54.87
73570;SHT30;61850;54.980;73.298;2022-08-11T08:38:52;28.84;53.72
73570;SHT30;61850;54.980;73.298;2022-08-11T08:41:26;29.29;52.70
73570;SHT30;61850;54.980;73.298;2022-08-11T08:43:58;29.38;52.37
73570;SHT30;61850;54.980;73.298;2022-08-11T08:46:33;29.46;52.12
73570;SHT30;61850;54.980;73.298;2022-08-11T08:49:03;29.94;50.63
73570;SHT30;61850;54.980;73.298;2022-08-11T08:51:34;30.03;49.79
73570;SHT30;61850;54.980;73.298;2022-08-11T08:54:16;30.20;49.41
73570;SHT30;61850;54.980;73.298;2022-08-11T08:56:43;30.62;49.07
73570;SHT30;61850;54.980;73.298;2022-08-11T08:59:12;30.41;49.88
73570;SHT30;61850;54.980;73.298;2022-08-11T09:01:57;29.74;50.61
73570;SHT30;61850;54.980;73.298;2022-08-11T09:04:26;29.90;50.43
73570;SHT30;61850;54.980;73.298;2022-08-11T09:06:55;30.29;49.79
73570;SHT30;61850;54.980;73.298;2022-08-11T09:09:22;30.45;49.48
73570;SHT30;61850;54.980;73.298;2022-08-11T09:12:02;30.31;50.27
73570;SHT30;61850;54.980;73.298;2022-08-11T09:14:35;30.68;48.48
73570;SHT30;61850;54.980;73.298;2022-08-11T09:17:22;30.68;48.71
73570;SHT30;61850;54.980;73.298;2022-08-11T09:19:54;30.44;49.12
73570;SHT30;61850;54.980;73.298;2022-08-11T09:22:30;30.52;48.81
73570;SHT30;61850;54.980;73.298;2022-08-11T09:25:29;30.38;49.07
73570;SHT30;61850;54.980;73.298;2022-08-11T09:28:16;30.37;49.76
73570;SHT30;61850;54.980;73.298;2022-08-11T09:30:51;30.39;49.51
73570;SHT30;61850;54.980;73.298;2022-08-11T09:33:24;30.45;49.40
73570;SHT30;61850;54.980;73.298;2022-08-11T09:35:57;30.37;49.72
73570;SHT30;61850;54.980;73.298;2022-08-11T09:38:55;30.18;50.01
73570;SHT30;61850;54.980;73.298;2022-08-11T09:41:48;30.61;49.42
73570;SHT30;61850;54.980;73.298;2022-08-11T09:44:51;30.86;48.11
73570;SHT30;61850;54.980;73.298;2022-08-11T09:47:33;31.60;46.80
73570;SHT30;61850;54.980;73.298;2022-08-11T09:50:16;30.82;48.07
73570;SHT30;61850;54.980;73.298;2022-08-11T09:52:45;31.17;47.14
73570;SHT30;61850;54.980;73.298;2022-08-11T09:55:23;31.61;46.15
73570;SHT30;61850;54.980;73.298;2022-08-11T09:57:55;32.01;45.61
73570;SHT30;61850;54.980;73.298;2022-08-11T10:00:55;31.58;46.32
73570;SHT30;61850;54.980;73.298;2022-08-11T10:03:34;31.88;46.03
73570;SHT30;61850;54.980;73.298;2022-08-11T10:06:04;32.22;45.26
73570;SHT30;61850;54.980;73.298;2022-08-11T10:08:55;32.36;44.85
73570;SHT30;61850;54.980;73.298;2022-08-11T10:11:28;32.77;43.96
73570;SHT30;61850;54.980;73.298;2022-08-11T10:14:06;32.61;43.88
73570;SHT30;61850;54.980;73.298;2022-08-11T10:17:09;32.84;43.54
73570;SHT30;61850;54.980;73.298;2022-08-11T10:19:37;32.81;43.87
73570;SHT30;61850;54.980;73.298;2022-08-11T10:22:18;32.78;43.96
73570;SHT30;61850;54.980;73.298;2022-08-11T10:25:05;32.37;44.60
73570;SHT30;61850;54.980;73.298;2022-08-11T10:27:56;32.63;43.55
73570;SHT30;61850;54.980;73.298;2022-08-11T10:30:52;32.56;43.99
73570;SHT30;61850;54.980;73.298;2022-08-11T10:33:38;32.60;44.23
73570;SHT30;61850;54.980;73.298;2022-08-11T10:36:23;32.40;44.67
73570;SHT30;61850;54.980;73.298;2022-08-11T10:39:03;32.76;43.64
73570;SHT30;61850;54.980;73.298;2022-08-11T10:41:33;32.91;43.08
73570;SHT30;61850;54.980;73.298;2022-08-11T10:44:19;32.92;43.29
73570;SHT30;61850;54.980;73.298;2022-08-11T10:46:51;32.94;43.27
73570;SHT30;61850;54.980;73.298;2022-08-11T10:49:47;32.52;44.11
73570;SHT30;61850;54.980;73.298;2022-08-11T10:52:39;33.05;43.11
73570;SHT30;61850;54.980;73.298;2022-08-11T10:55:27;33.10;42.72
73570;SHT30;61850;54.980;73.298;2022-08-11T10:58:12;33.10;42.94
73570;SHT30;61850;54.980;73.298;2022-08-11T11:01:04;32.74;43.53
73570;SHT30;61850;54.980;73.298;2022-08-11T11:03:36;32.92;43.22
73570;SHT30;61850;54.980;73.298;2022-08-11T11:06:27;32.97;42.92
73570;SHT30;61850;54.980;73.298;2022-08-11T11:09:07;33.05;42.61
73570;SHT30;61850;54.980;73.298;2022-08-11T11:11:39;33.17;42.13
73570;SHT30;61850;54.980;73.298;2022-08-11T11:14:40;32.97;42.55
73570;SHT30;61850;54.980;73.298;2022-08-11T11:17:58;32.71;43.30
73570;SHT30;61850;54.980;73.298;2022-08-11T11:20:49;32.19;44.36
73570;SHT30;61850;54.980;73.298;2022-08-11T11:37:32;32.25;44.35
73570;SHT30;61850;54.980;73.298;2022-08-11T11:40:21;31.93;44.91
73570;SHT30;61850;54.980;73.298;2022-08-11T11:42:51;32.25;44.34
73570;SHT30;61850;54.980;73.298;2022-08-11T11:45:21;31.84;45.15
73570;SHT30;61850;54.980;73.298;2022-08-11T11:47:49;32.29;44.43
73570;SHT30;61850;54.980;73.298;2022-08-11T11:50:35;32.40;43.68
73570;SHT30;61850;54.980;73.298;2022-08-11T11:53:07;32.36;43.51
73570;SHT30;61850;54.980;73.298;2022-08-11T11:55:34;32.02;44.32
73570;SHT30;61850;54.980;73.298;2022-08-11T11:58:03;31.60;44.97
73570;SHT30;61850;54.980;73.298;2022-08-11T12:00:50;31.60;45.19
73570;SHT30;61850;54.980;73.298;2022-08-11T12:03:44;31.53;45.32
73570;SHT30;61850;54.980;73.298;2022-08-11T12:06:12;31.23;45.77
73570;SHT30;61850;54.980;73.298;2022-08-11T12:08:48;30.79;46.65
73570;SHT30;61850;54.980;73.298;2022-08-11T12:11:30;31.13;46.31
73570;SHT30;61850;54.980;73.298;2022-08-11T12:14:19;31.03;46.44
73570;SHT30;61850;54.980;73.298;2022-08-11T12:16:47;30.41;48.07
73570;SHT30;61850;54.980;73.298;2022-08-11T12:19:22;30.13;48.57
73570;SHT30;61850;54.980;73.298;2022-08-11T12:21:56;30.68;47.22
73570;SHT30;61850;54.980;73.298;2022-08-11T12:24:42;30.96;46.63
73570;SHT30;61850;54.980;73.298;2022-08-11T12:27:30;31.26;45.75
73570;SHT30;61850;54.980;73.298;2022-08-11T12:30:07;31.30;45.59
73570;SHT30;61850;54.980;73.298;2022-08-11T12:32:43;31.34;45.68
73570;SHT30;61850;54.980;73.298;2022-08-11T12:35:14;30.54;47.20
73570;SHT30;61850;54.980;73.298;2022-08-11T12:37:53;30.55;47.47
73570;SHT30;61850;54.980;73.298;2022-08-11T12:40:25;30.61;47.22
73570;SHT30;61850;54.980;73.298;2022-08-11T12:43:14;30.21;47.87
73570;SHT30;61850;54.980;73.298;2022-08-11T12:46:02;29.84;48.97
73570;SHT30;61850;54.980;73.298;2022-08-11T12:48:36;29.90;48.89
73570;SHT30;61850;54.980;73.298;2022-08-11T12:51:44;29.79;48.79
73570;SHT30;61850;54.980;73.298;2022-08-11T12:57:06;29.45;49.60
73570;SHT30;61850;54.980;73.298;2022-08-11T12:59:59;29.01;50.82
73570;SHT30;61850;54.980;73.298;2022-08-11T13:02:48;28.92;51.06
73570;SHT30;61850;54.980;73.298;2022-08-11T13:05:33;28.50;52.11
73570;SHT30;61850;54.980;73.298;2022-08-11T13:08:01;28.78;51.68
73570;SHT30;61850;54.980;73.298;2022-08-11T13:10:30;28.90;51.44
73570;SHT30;61850;54.980;73.298;2022-08-11T13:13:17;28.84;51.49
73570;SHT30;61850;54.980;73.298;2022-08-11T13:15:53;28.65;51.77
73570;SHT30;61850;54.980;73.298;2022-08-11T13:18:32;28.40;52.17
73570;SHT30;61850;54.980;73.298;2022-08-11T13:20:59;28.06;52.86
73570;SHT30;61850;54.980;73.298;2022-08-11T13:23:27;27.13;55.15
73570;SHT30;61850;54.980;73.298;2022-08-11T13:25:55;26.38;57.56
73570;SHT30;61850;54.980;73.298;2022-08-11T13:28:22;26.03;58.25
73570;SHT30;61850;54.980;73.298;2022-08-11T13:30:49;25.47;59.98
73570;SHT30;61850;54.980;73.298;2022-08-11T13:33:43;25.32;60.51
73570;SHT30;61850;54.980;73.298;2022-08-11T13:36:11;25.05;61.29
73570;SHT30;61850;54.980;73.298;2022-08-11T13:38:39;24.77;62.32
73570;SHT30;61850;54.980;73.298;2022-08-11T13:41:08;24.53;63.19
73570;SHT30;61850;54.980;73.298;2022-08-11T13:44:01;24.37;63.78
73570;SHT30;61850;54.980;73.298;2022-08-11T13:46:28;24.18;64.23
73570;SHT30;61850;54.980;73.298;2022-08-11T13:48:56;24.12;64.44
73570;SHT30;61850;54.980;73.298;2022-08-11T13:51:24;23.82;65.81
73570;SHT30;61850;54.980;73.298;2022-08-11T13:54:20;23.71;66.11
73570;SHT30;61850;54.980;73.298;2022-08-11T13:56:51;23.58;66.49
73570;SHT30;61850;54.980;73.298;2022-08-11T13:59:19;23.49;66.49
73570;SHT30;61850;54.980;73.298;2022-08-11T14:02:00;23.37;66.71
73570;SHT30;61850;54.980;73.298;2022-08-11T14:04:40;23.17;67.71
73570;SHT30;61850;54.980;73.298;2022-08-11T14:07:09;23.05;67.71
73570;SHT30;61850;54.980;73.298;2022-08-11T14:09:45;22.98;68.01
73570;SHT30;61850;54.980;73.298;2022-08-11T14:12:34;22.86;68.85
73570;SHT30;61850;54.980;73.298;2022-08-11T14:15:33;22.88;68.63
73570;SHT30;61850;54.980;73.298;2022-08-11T14:18:10;22.76;69.17
73570;SHT30;61850;54.980;73.298;2022-08-11T14:20:41;22.81;68.47
73570;SHT30;61850;54.980;73.298;2022-08-11T14:23:42;22.68;69.07
73570;SHT30;61850;54.980;73.298;2022-08-11T14:26:11;22.65;69.17
73570;SHT30;61850;54.980;73.298;2022-08-11T14:29:03;22.61;69.29
73570;SHT30;61850;54.980;73.298;2022-08-11T14:31:31;22.54;69.27
73570;SHT30;61850;54.980;73.298;2022-08-11T14:34:04;22.51;69.63
73570;SHT30;61850;54.980;73.298;2022-08-11T14:36:43;22.45;69.72
73570;SHT30;61850;54.980;73.298;2022-08-11T14:39:15;22.40;69.91
73570;SHT30;61850;54.980;73.298;2022-08-11T14:41:46;22.38;69.97
73570;SHT30;61850;54.980;73.298;2022-08-11T14:44:53;22.24;70.62
73570;SHT30;61850;54.980;73.298;2022-08-11T14:47:40;22.11;71.07
73570;SHT30;61850;54.980;73.298;2022-08-11T14:50:14;21.99;71.48
73570;SHT30;61850;54.980;73.298;2022-08-11T14:52:53;21.94;71.63
73570;SHT30;61850;54.980;73.298;2022-08-11T14:55:27;21.89;71.95
73570;SHT30;61850;54.980;73.298;2022-08-11T14:58:20;21.92;71.59
73570;SHT30;61850;54.980;73.298;2022-08-11T15:00:56;21.73;72.61
73570;SHT30;61850;54.980;73.298;2022-08-11T15:03:24;21.66;72.81
73570;SHT30;61850;54.980;73.298;2022-08-11T15:05:53;21.78;72.32
73570;SHT30;61850;54.980;73.298;2022-08-11T15:08:30;21.79;72.46
73570;SHT30;61850;54.980;73.298;2022-08-11T15:11:19;21.83;72.26
73570;SHT30;61850;54.980;73.298;2022-08-11T15:14:09;21.78;72.46
73570;SHT30;61850;54.980;73.298;2022-08-11T15:16:40;21.70;72.80
73570;SHT30;61850;54.980;73.298;2022-08-11T15:19:30;21.65;73.01
73570;SHT30;61850;54.980;73.298;2022-08-11T15:22:30;21.67;72.75
73570;SHT30;61850;54.980;73.298;2022-08-11T15:25:26;21.59;72.98
73570;SHT30;61850;54.980;73.298;2022-08-11T15:30:55;21.49;73.54
73570;SHT30;61850;54.980;73.298;2022-08-11T15:33:43;21.49;73.34
73570;SHT30;61850;54.980;73.298;2022-08-11T15:36:32;21.43;73.27
73570;SHT30;61850;54.980;73.298;2022-08-11T15:39:26;21.37;73.52
73570;SHT30;61850;54.980;73.298;2022-08-11T15:44:58;21.14;74.46
73570;SHT30;61850;54.980;73.298;2022-08-11T15:47:55;21.15;74.54
73570;SHT30;61850;54.980;73.298;2022-08-11T15:53:32;21.22;74.19
73570;SHT30;61850;54.980;73.298;2022-08-11T15:56:00;21.17;74.41
73570;SHT30;61850;54.980;73.298;2022-08-11T15:58:32;21.15;74.42
73570;SHT30;61850;54.980;73.298;2022-08-11T16:01:31;21.14;74.30
73570;SHT30;61850;54.980;73.298;2022-08-11T16:07:18;20.90;75.00
73570;SHT30;61850;54.980;73.298;2022-08-11T16:10:12;20.94;74.77
73570;SHT30;61850;54.980;73.298;2022-08-11T16:12:57;20.94;74.58
73570;SHT30;61850;54.980;73.298;2022-08-11T16:15:46;20.91;74.80
73570;SHT30;61850;54.980;73.298;2022-08-11T16:18:50;20.83;74.96
73570;SHT30;61850;54.980;73.298;2022-08-11T16:27:25;20.88;74.80
73570;SHT30;61850;54.980;73.298;2022-08-11T16:29:53;20.80;75.09
73570;SHT30;61850;54.980;73.298;2022-08-11T16:47:36;20.66;75.96
73570;SHT30;61850;54.980;73.298;2022-08-11T16:50:03;20.70;75.68
73570;SHT30;61850;54.980;73.298;2022-08-11T16:58:37;20.76;75.37
73570;SHT30;61850;54.980;73.298;2022-08-11T17:01:23;20.74;75.41
73570;SHT30;61850;54.980;73.298;2022-08-11T17:03:56;20.69;75.62
73570;SHT30;61850;54.980;73.298;2022-08-11T17:06:45;20.67;75.68
73570;SHT30;61850;54.980;73.298;2022-08-11T17:12:40;20.70;75.51
73570;SHT30;61850;54.980;73.298;2022-08-11T17:15:25;20.76;75.40
73570;SHT30;61850;54.980;73.298;2022-08-11T17:18:13;20.70;75.54
73570;SHT30;61850;54.980;73.298;2022-08-11T17:21:01;20.72;75.45
73570;SHT30;61850;54.980;73.298;2022-08-11T17:23:35;20.73;75.40
73570;SHT30;61850;54.980;73.298;2022-08-11T17:29:41;20.73;75.57
73570;SHT30;61850;54.980;73.298;2022-08-11T17:32:15;20.84;75.25
73570;SHT30;61850;54.980;73.298;2022-08-11T17:35:04;20.87;74.96
73570;SHT30;61850;54.980;73.298;2022-08-11T17:38:10;20.85;75.06
73570;SHT30;61850;54.980;73.298;2022-08-11T17:41:00;20.93;74.87
73570;SHT30;61850;54.980;73.298;2022-08-11T17:43:48;20.88;74.75
73570;SHT30;61850;54.980;73.298;2022-08-11T17:46:35;20.85;74.76
73570;SHT30;61850;54.980;73.298;2022-08-11T17:49:22;20.90;74.75
73570;SHT30;61850;54.980;73.298;2022-08-11T17:51:51;20.88;74.83
73570;SHT30;61850;54.980;73.298;2022-08-11T17:57:53;20.81;74.99
73570;SHT30;61850;54.980;73.298;2022-08-11T18:00:39;20.84;74.96
73570;SHT30;61850;54.980;73.298;2022-08-11T18:03:06;20.81;75.16
73570;SHT30;61850;54.980;73.298;2022-08-11T18:05:52;20.74;75.32
73570;SHT30;61850;54.980;73.298;2022-08-11T18:08:19;20.76;75.25
73570;SHT30;61850;54.980;73.298;2022-08-11T18:11:05;20.80;75.05
73570;SHT30;61850;54.980;73.298;2022-08-11T18:13:51;20.83;74.85
73570;SHT30;61850;54.980;73.298;2022-08-11T18:16:37;20.84;74.98
73570;SHT30;61850;54.980;73.298;2022-08-11T18:22:27;20.74;75.41
73570;SHT30;61850;54.980;73.298;2022-08-11T18:48:51;20.83;75.20
73570;SHT30;61850;54.980;73.298;2022-08-11T18:51:37;20.81;75.09
73570;SHT30;61850;54.980;73.298;2022-08-11T18:54:36;20.77;75.29
73570;SHT30;61850;54.980;73.298;2022-08-11T18:57:21;20.70;75.58
73570;SHT30;61850;54.980;73.298;2022-08-11T19:00:07;20.70;75.74
73570;SHT30;61850;54.980;73.298;2022-08-11T19:18:19;20.80;75.35
73570;SHT30;61850;54.980;73.298;2022-08-11T19:21:15;20.80;75.30
73570;SHT30;61850;54.980;73.298;2022-08-11T19:24:02;20.79;75.22
73570;SHT30;61850;54.980;73.298;2022-08-11T19:26:58;20.84;75.06
73570;SHT30;61850;54.980;73.298;2022-08-11T19:29:43;20.84;75.07
73570;SHT30;61850;54.980;73.298;2022-08-11T19:32:33;20.84;74.98
73570;SHT30;61850;54.980;73.298;2022-08-11T19:35:22;20.79;75.17
73570;SHT30;61850;54.980;73.298;2022-08-11T19:38:08;20.80;75.22
73570;SHT30;61850;54.980;73.298;2022-08-11T19:46:52;20.73;75.24
73570;SHT30;61850;54.980;73.298;2022-08-11T19:49:39;20.74;75.10
73570;SHT30;61850;54.980;73.298;2022-08-11T20:04:39;20.70;75.25
73570;SHT30;61850;54.980;73.298;2022-08-11T20:10:35;20.63;75.58
73570;SHT30;61850;54.980;73.298;2022-08-11T20:13:31;20.69;75.39
73570;SHT30;61850;54.980;73.298;2022-08-11T20:16:22;20.74;75.24
73570;SHT30;61850;54.980;73.298;2022-08-11T20:19:07;20.69;75.17
73570;SHT30;61850;54.980;73.298;2022-08-11T20:21:55;20.72;74.96
73570;SHT30;61850;54.980;73.298;2022-08-11T20:24:42;20.67;74.90
73570;SHT30;61850;54.980;73.298;2022-08-11T20:27:27;20.66;75.21
73570;SHT30;61850;54.980;73.298;2022-08-11T20:30:13;20.70;75.08
73570;SHT30;61850;54.980;73.298;2022-08-11T20:33:00;20.72;75.10
73570;SHT30;61850;54.980;73.298;2022-08-11T20:48:05;20.80;74.73
73570;SHT30;61850;54.980;73.298;2022-08-11T20:50:51;20.80;74.68
73570;SHT30;61850;54.980;73.298;2022-08-11T20:53:48;20.76;74.80
73570;SHT30;61850;54.980;73.298;2022-08-11T20:56:35;20.76;74.77
73570;SHT30;61850;54.980;73.298;2022-08-11T20:59:22;20.76;74.81
73570;SHT30;61850;54.980;73.298;2022-08-11T21:02:17;20.72;75.10
73570;SHT30;61850;54.980;73.298;2022-08-11T21:05:04;20.56;75.51
73570;SHT30;61850;54.980;73.298;2022-08-11T21:07:51;20.50;75.95
73570;SHT30;61850;54.980;73.298;2022-08-11T21:10:41;20.56;75.78
73570;SHT30;61850;54.980;73.298;2022-08-11T21:13:35;20.57;75.72
73570;SHT30;61850;54.980;73.298;2022-08-11T21:25:33;20.66;74.94
73570;SHT30;61850;54.980;73.298;2022-08-11T21:28:32;20.62;75.21
73570;SHT30;61850;54.980;73.298;2022-08-11T21:57:53;20.69;74.66
73570;SHT30;61850;54.980;73.298;2022-08-11T22:00:40;20.69;74.82
73570;SHT30;61850;54.980;73.298;2022-08-11T22:09:19;20.52;75.36
73570;SHT30;61850;54.980;73.298;2022-08-11T22:12:15;20.53;75.42
73570;SHT30;61850;54.980;73.298;2022-08-11T22:15:00;20.47;75.68
73570;SHT30;61850;54.980;73.298;2022-08-11T22:17:45;20.46;75.62
73570;SHT30;61850;54.980;73.298;2022-08-11T22:20:31;20.53;75.48
73570;SHT30;61850;54.980;73.298;2022-08-11T22:23:22;20.49;75.54
73570;SHT30;61850;54.980;73.298;2022-08-11T22:26:33;20.54;75.39
73570;SHT30;61850;54.980;73.298;2022-08-11T22:32:35;20.59;75.00
73570;SHT30;61850;54.980;73.298;2022-08-11T22:35:38;20.59;74.90
73570;SHT30;61850;54.980;73.298;2022-08-11T22:38:27;20.63;74.68
73570;SHT30;61850;54.980;73.298;2022-08-11T22:44:23;20.62;74.91
73570;SHT30;61850;54.980;73.298;2022-08-11T22:47:08;20.49;75.46
73570;SHT30;61850;54.980;73.298;2022-08-11T22:50:02;20.44;75.62
73570;SHT30;61850;54.980;73.298;2022-08-11T22:52:54;20.44;75.37
73570;SHT30;61850;54.980;73.298;2022-08-11T22:58:48;20.54;74.99